Aérodrome :
LOGIN :

S'inscrire | Disclaimer

   EN    FR    IT 

 










Légende :    VFR   VFR Marginal   IFR   IFR Intensif   IFR Très Intensif
Visi : 
Plafond : 
>= 8 km
>= 3000ft
5 à 8 km
1000 à 3000 ft
1500m à 5 km
500 à 1000 ft
800 à 1500m
200 à 500 ft
< 800m
< 200 ft
Symboles :   Orages  Brouillard  Fortes neiges  Fortes précipitations  Vent > 20 kt
SIGMETs :   Divers  Orages  Givrage  Turbulence  Onde Orograph.  Cendres Volcan.







- Altitude de l'aérodrome : 141 ft
- Code IATA : TGD


LYPG - Podgorica - Montenegro

DERNIER METAR :
  • 211200Z 12004KT 090V150 9999 FEW030 SCT040 OVC080 14/10 Q1012 NOSIG

METARs EXPIRÉS :
  • 211130Z 11003KT 080V150 9999 FEW030 BKN090 14/10 Q1012 NOSIG
  • 211100Z VRB01KT 9999 FEW030 SCT090 14/10 Q1012 NOSIG
  • 211030Z VRB02KT 9999 FEW030 14/10 Q1012 NOSIG
  • 211000Z VRB02KT 9999 FEW040 13/11 Q1012 NOSIG
  • 210930Z VRB01KT 9999 FEW040 SCT070 13/10 Q1012 NOSIG

TAF TAF LYPG
Valide du 21 à 12h jusqu'au 22 à 12h UTC


211100Z 2112/2212 VRB02KT 9999 SCT030 SCT080 TX16/2113Z TN10/2204Z
Pas de NOTAMs connus pour ce terrain.



MET'MAP, la Météo Aéronautique d'un coup d'oeil ! - Copyright ORBIFLY Décembre 2007 - Disclaimer

ORBIFLY MET'MAP TEAM :

Programmation & Développement : Alexandra Zaïnal
Conception & Développement : Baudouin d'Aumeries
Co-Programmation & Développement : Marc-Olivier Méhu
Soutien technique & logistique : Manuel Goepfert

Contact : metmap@orbifly.com




SOURCES & CREDITS :

   NOAA